sensor_id;sensor_type;location;lat;lon;timestamp;P1;durP1;ratioP1;P2;durP2;ratioP2
12306;SDS011;6216;51.146;7.008;2024-02-15T00:00:17;6.20;;;4.10;;
12306;SDS011;6216;51.146;7.008;2024-02-15T00:02:46;4.63;;;3.83;;
12306;SDS011;6216;51.146;7.008;2024-02-15T00:05:14;4.97;;;4.47;;
12306;SDS011;6216;51.146;7.008;2024-02-15T00:07:42;4.30;;;3.90;;
12306;SDS011;6216;51.146;7.008;2024-02-15T00:10:12;4.50;;;3.83;;
12306;SDS011;6216;51.146;7.008;2024-02-15T00:12:42;5.43;;;4.30;;
12306;SDS011;6216;51.146;7.008;2024-02-15T00:15:10;6.33;;;3.77;;
12306;SDS011;6216;51.146;7.008;2024-02-15T00:17:39;4.87;;;4.40;;
12306;SDS011;6216;51.146;7.008;2024-02-15T00:20:08;5.30;;;4.20;;
12306;SDS011;6216;51.146;7.008;2024-02-15T00:22:36;4.80;;;4.40;;
12306;SDS011;6216;51.146;7.008;2024-02-15T00:25:05;5.37;;;4.30;;
12306;SDS011;6216;51.146;7.008;2024-02-15T00:27:35;4.83;;;4.23;;
12306;SDS011;6216;51.146;7.008;2024-02-15T00:30:05;6.03;;;3.70;;
12306;SDS011;6216;51.146;7.008;2024-02-15T00:32:34;5.00;;;3.30;;
12306;SDS011;6216;51.146;7.008;2024-02-15T00:35:03;5.23;;;3.90;;
12306;SDS011;6216;51.146;7.008;2024-02-15T00:37:34;4.13;;;3.60;;
12306;SDS011;6216;51.146;7.008;2024-02-15T00:40:03;3.70;;;3.40;;
12306;SDS011;6216;51.146;7.008;2024-02-15T00:42:31;6.97;;;5.90;;
12306;SDS011;6216;51.146;7.008;2024-02-15T00:45:00;5.37;;;3.80;;
12306;SDS011;6216;51.146;7.008;2024-02-15T00:47:29;5.90;;;3.63;;
12306;SDS011;6216;51.146;7.008;2024-02-15T00:49:59;4.03;;;3.23;;
12306;SDS011;6216;51.146;7.008;2024-02-15T00:52:27;4.10;;;3.07;;
12306;SDS011;6216;51.146;7.008;2024-02-15T00:54:56;7.83;;;3.40;;
12306;SDS011;6216;51.146;7.008;2024-02-15T00:57:25;7.07;;;3.77;;
12306;SDS011;6216;51.146;7.008;2024-02-15T00:59:53;4.60;;;3.60;;
12306;SDS011;6216;51.146;7.008;2024-02-15T01:02:21;4.40;;;3.77;;
12306;SDS011;6216;51.146;7.008;2024-02-15T01:04:51;6.00;;;3.33;;
12306;SDS011;6216;51.146;7.008;2024-02-15T01:07:23;4.83;;;3.20;;
12306;SDS011;6216;51.146;7.008;2024-02-15T01:09:53;4.27;;;3.67;;
12306;SDS011;6216;51.146;7.008;2024-02-15T01:12:21;4.83;;;3.47;;
12306;SDS011;6216;51.146;7.008;2024-02-15T01:14:50;8.43;;;3.63;;
12306;SDS011;6216;51.146;7.008;2024-02-15T01:17:18;3.63;;;3.33;;
12306;SDS011;6216;51.146;7.008;2024-02-15T01:19:46;4.03;;;3.20;;
12306;SDS011;6216;51.146;7.008;2024-02-15T01:22:16;6.97;;;3.80;;
12306;SDS011;6216;51.146;7.008;2024-02-15T01:24:45;4.60;;;3.63;;
12306;SDS011;6216;51.146;7.008;2024-02-15T01:27:13;4.57;;;3.50;;
12306;SDS011;6216;51.146;7.008;2024-02-15T01:29:41;6.97;;;3.80;;
12306;SDS011;6216;51.146;7.008;2024-02-15T01:32:10;5.47;;;3.70;;
12306;SDS011;6216;51.146;7.008;2024-02-15T01:34:38;4.47;;;3.60;;
12306;SDS011;6216;51.146;7.008;2024-02-15T01:37:08;4.93;;;3.53;;
12306;SDS011;6216;51.146;7.008;2024-02-15T01:39:38;8.57;;;4.20;;
12306;SDS011;6216;51.146;7.008;2024-02-15T01:42:06;5.93;;;3.83;;
12306;SDS011;6216;51.146;7.008;2024-02-15T01:44:35;6.93;;;4.00;;
12306;SDS011;6216;51.146;7.008;2024-02-15T01:47:03;6.13;;;4.20;;
12306;SDS011;6216;51.146;7.008;2024-02-15T01:49:31;6.70;;;3.90;;
12306;SDS011;6216;51.146;7.008;2024-02-15T01:52:00;7.90;;;4.67;;
12306;SDS011;6216;51.146;7.008;2024-02-15T01:54:29;9.23;;;4.60;;
12306;SDS011;6216;51.146;7.008;2024-02-15T01:56:59;6.20;;;4.67;;
12306;SDS011;6216;51.146;7.008;2024-02-15T01:59:28;9.53;;;4.77;;
12306;SDS011;6216;51.146;7.008;2024-02-15T02:01:58;8.33;;;4.23;;
12306;SDS011;6216;51.146;7.008;2024-02-15T02:04:26;11.63;;;4.77;;
12306;SDS011;6216;51.146;7.008;2024-02-15T02:06:55;9.03;;;5.10;;
12306;SDS011;6216;51.146;7.008;2024-02-15T02:09:25;9.93;;;4.90;;
12306;SDS011;6216;51.146;7.008;2024-02-15T02:11:53;9.47;;;4.60;;
12306;SDS011;6216;51.146;7.008;2024-02-15T02:14:23;7.73;;;5.07;;
12306;SDS011;6216;51.146;7.008;2024-02-15T02:16:51;12.17;;;6.50;;
12306;SDS011;6216;51.146;7.008;2024-02-15T02:19:21;11.77;;;5.40;;
12306;SDS011;6216;51.146;7.008;2024-02-15T02:21:49;8.10;;;5.53;;
12306;SDS011;6216;51.146;7.008;2024-02-15T02:24:19;6.43;;;5.57;;
12306;SDS011;6216;51.146;7.008;2024-02-15T02:26:50;8.43;;;5.43;;
12306;SDS011;6216;51.146;7.008;2024-02-15T02:29:20;7.73;;;5.37;;
12306;SDS011;6216;51.146;7.008;2024-02-15T02:31:48;8.33;;;5.30;;
12306;SDS011;6216;51.146;7.008;2024-02-15T02:34:17;8.57;;;4.90;;
12306;SDS011;6216;51.146;7.008;2024-02-15T02:36:47;7.53;;;4.40;;
12306;SDS011;6216;51.146;7.008;2024-02-15T02:39:16;9.23;;;4.20;;
12306;SDS011;6216;51.146;7.008;2024-02-15T02:41:45;5.27;;;4.10;;
12306;SDS011;6216;51.146;7.008;2024-02-15T02:44:14;3.90;;;3.50;;
12306;SDS011;6216;51.146;7.008;2024-02-15T02:46:42;8.83;;;4.13;;
12306;SDS011;6216;51.146;7.008;2024-02-15T02:49:11;10.13;;;3.70;;
12306;SDS011;6216;51.146;7.008;2024-02-15T02:51:39;7.67;;;2.87;;
12306;SDS011;6216;51.146;7.008;2024-02-15T02:54:07;7.83;;;3.13;;
12306;SDS011;6216;51.146;7.008;2024-02-15T02:56:35;6.73;;;2.80;;
12306;SDS011;6216;51.146;7.008;2024-02-15T02:59:04;4.77;;;3.07;;
12306;SDS011;6216;51.146;7.008;2024-02-15T03:01:34;7.17;;;3.00;;
12306;SDS011;6216;51.146;7.008;2024-02-15T03:04:03;4.50;;;2.93;;
12306;SDS011;6216;51.146;7.008;2024-02-15T03:06:31;3.83;;;2.70;;
12306;SDS011;6216;51.146;7.008;2024-02-15T03:09:00;3.67;;;2.87;;
12306;SDS011;6216;51.146;7.008;2024-02-15T03:11:33;3.87;;;2.83;;
12306;SDS011;6216;51.146;7.008;2024-02-15T03:14:02;4.10;;;2.77;;
12306;SDS011;6216;51.146;7.008;2024-02-15T03:16:31;5.20;;;3.40;;
12306;SDS011;6216;51.146;7.008;2024-02-15T03:19:01;7.47;;;2.93;;
12306;SDS011;6216;51.146;7.008;2024-02-15T03:21:30;5.47;;;3.00;;
12306;SDS011;6216;51.146;7.008;2024-02-15T03:23:59;3.03;;;2.50;;
12306;SDS011;6216;51.146;7.008;2024-02-15T03:26:30;5.03;;;3.00;;
12306;SDS011;6216;51.146;7.008;2024-02-15T03:29:03;6.07;;;2.70;;
12306;SDS011;6216;51.146;7.008;2024-02-15T03:31:33;6.37;;;2.43;;
12306;SDS011;6216;51.146;7.008;2024-02-15T03:34:04;4.90;;;2.40;;
12306;SDS011;6216;51.146;7.008;2024-02-15T03:36:32;6.83;;;3.00;;
12306;SDS011;6216;51.146;7.008;2024-02-15T03:39:00;4.23;;;2.17;;
12306;SDS011;6216;51.146;7.008;2024-02-15T03:41:29;3.80;;;2.13;;
12306;SDS011;6216;51.146;7.008;2024-02-15T03:43:59;4.30;;;2.07;;
12306;SDS011;6216;51.146;7.008;2024-02-15T03:46:27;6.27;;;2.23;;
12306;SDS011;6216;51.146;7.008;2024-02-15T03:48:56;4.83;;;2.30;;
12306;SDS011;6216;51.146;7.008;2024-02-15T03:51:26;3.73;;;2.40;;
12306;SDS011;6216;51.146;7.008;2024-02-15T03:53:55;3.03;;;1.90;;
12306;SDS011;6216;51.146;7.008;2024-02-15T03:56:24;1.70;;;1.50;;
12306;SDS011;6216;51.146;7.008;2024-02-15T03:58:54;6.97;;;2.63;;
12306;SDS011;6216;51.146;7.008;2024-02-15T04:01:23;2.73;;;2.13;;
12306;SDS011;6216;51.146;7.008;2024-02-15T04:03:53;3.20;;;1.90;;
12306;SDS011;6216;51.146;7.008;2024-02-15T04:06:21;2.90;;;1.70;;
12306;SDS011;6216;51.146;7.008;2024-02-15T04:08:52;3.60;;;1.80;;
12306;SDS011;6216;51.146;7.008;2024-02-15T04:11:21;8.93;;;2.27;;
12306;SDS011;6216;51.146;7.008;2024-02-15T04:13:49;4.23;;;2.10;;
12306;SDS011;6216;51.146;7.008;2024-02-15T04:16:17;5.03;;;2.73;;
12306;SDS011;6216;51.146;7.008;2024-02-15T04:18:45;2.53;;;1.97;;
12306;SDS011;6216;51.146;7.008;2024-02-15T04:21:14;3.43;;;1.67;;
12306;SDS011;6216;51.146;7.008;2024-02-15T04:23:43;4.00;;;1.60;;
12306;SDS011;6216;51.146;7.008;2024-02-15T04:26:12;2.80;;;1.80;;
12306;SDS011;6216;51.146;7.008;2024-02-15T04:28:41;3.20;;;1.80;;
12306;SDS011;6216;51.146;7.008;2024-02-15T04:31:09;3.30;;;2.07;;
12306;SDS011;6216;51.146;7.008;2024-02-15T04:33:38;3.90;;;1.90;;
12306;SDS011;6216;51.146;7.008;2024-02-15T04:36:07;3.07;;;1.90;;
12306;SDS011;6216;51.146;7.008;2024-02-15T04:38:36;2.90;;;1.70;;
12306;SDS011;6216;51.146;7.008;2024-02-15T04:41:05;2.30;;;1.70;;
12306;SDS011;6216;51.146;7.008;2024-02-15T04:43:37;3.87;;;2.10;;
12306;SDS011;6216;51.146;7.008;2024-02-15T04:46:07;3.60;;;1.53;;
12306;SDS011;6216;51.146;7.008;2024-02-15T04:48:35;3.47;;;1.90;;
12306;SDS011;6216;51.146;7.008;2024-02-15T04:51:04;4.03;;;1.80;;
12306;SDS011;6216;51.146;7.008;2024-02-15T04:53:32;3.20;;;1.70;;
12306;SDS011;6216;51.146;7.008;2024-02-15T04:56:02;3.77;;;2.10;;
12306;SDS011;6216;51.146;7.008;2024-02-15T04:58:37;6.03;;;1.97;;
12306;SDS011;6216;51.146;7.008;2024-02-15T05:01:12;2.80;;;1.70;;
12306;SDS011;6216;51.146;7.008;2024-02-15T05:03:40;4.90;;;1.87;;
12306;SDS011;6216;51.146;7.008;2024-02-15T05:06:09;8.23;;;1.90;;
12306;SDS011;6216;51.146;7.008;2024-02-15T05:08:39;3.33;;;1.83;;
12306;SDS011;6216;51.146;7.008;2024-02-15T05:11:09;3.40;;;1.83;;
12306;SDS011;6216;51.146;7.008;2024-02-15T05:13:44;3.20;;;2.10;;
12306;SDS011;6216;51.146;7.008;2024-02-15T05:16:12;3.43;;;1.73;;
12306;SDS011;6216;51.146;7.008;2024-02-15T05:18:40;3.43;;;1.70;;
12306;SDS011;6216;51.146;7.008;2024-02-15T05:21:09;5.17;;;2.53;;
12306;SDS011;6216;51.146;7.008;2024-02-15T05:23:38;4.20;;;1.90;;
12306;SDS011;6216;51.146;7.008;2024-02-15T05:26:08;4.13;;;2.23;;
12306;SDS011;6216;51.146;7.008;2024-02-15T05:28:36;4.57;;;1.87;;
12306;SDS011;6216;51.146;7.008;2024-02-15T05:31:10;2.73;;;1.73;;
12306;SDS011;6216;51.146;7.008;2024-02-15T05:33:38;5.53;;;2.10;;
12306;SDS011;6216;51.146;7.008;2024-02-15T05:36:09;2.90;;;1.50;;
12306;SDS011;6216;51.146;7.008;2024-02-15T05:38:38;5.70;;;2.07;;
12306;SDS011;6216;51.146;7.008;2024-02-15T05:41:06;3.90;;;1.60;;
12306;SDS011;6216;51.146;7.008;2024-02-15T05:43:34;5.00;;;2.27;;
12306;SDS011;6216;51.146;7.008;2024-02-15T05:46:03;4.33;;;1.87;;
12306;SDS011;6216;51.146;7.008;2024-02-15T05:48:34;5.00;;;1.93;;
12306;SDS011;6216;51.146;7.008;2024-02-15T05:51:03;4.60;;;1.73;;
12306;SDS011;6216;51.146;7.008;2024-02-15T05:53:31;3.97;;;1.80;;
12306;SDS011;6216;51.146;7.008;2024-02-15T05:56:02;5.93;;;1.83;;
12306;SDS011;6216;51.146;7.008;2024-02-15T05:58:31;4.77;;;1.90;;
12306;SDS011;6216;51.146;7.008;2024-02-15T06:01:00;7.70;;;1.90;;
12306;SDS011;6216;51.146;7.008;2024-02-15T06:03:31;5.40;;;1.60;;
12306;SDS011;6216;51.146;7.008;2024-02-15T06:06:01;4.83;;;1.77;;
12306;SDS011;6216;51.146;7.008;2024-02-15T06:08:33;2.33;;;2.10;;
12306;SDS011;6216;51.146;7.008;2024-02-15T06:11:02;4.27;;;2.10;;
12306;SDS011;6216;51.146;7.008;2024-02-15T06:13:31;4.13;;;2.10;;
12306;SDS011;6216;51.146;7.008;2024-02-15T06:15:59;6.40;;;2.70;;
12306;SDS011;6216;51.146;7.008;2024-02-15T06:18:28;6.20;;;1.93;;
12306;SDS011;6216;51.146;7.008;2024-02-15T06:20:59;4.03;;;2.30;;
12306;SDS011;6216;51.146;7.008;2024-02-15T06:23:30;5.03;;;2.47;;
12306;SDS011;6216;51.146;7.008;2024-02-15T06:25:59;4.27;;;2.20;;
12306;SDS011;6216;51.146;7.008;2024-02-15T06:28:29;5.83;;;2.27;;
12306;SDS011;6216;51.146;7.008;2024-02-15T06:31:15;6.93;;;2.23;;
12306;SDS011;6216;51.146;7.008;2024-02-15T06:34:01;6.23;;;2.20;;
12306;SDS011;6216;51.146;7.008;2024-02-15T06:36:47;6.23;;;2.13;;
12306;SDS011;6216;51.146;7.008;2024-02-15T06:39:34;11.60;;;2.43;;
12306;SDS011;6216;51.146;7.008;2024-02-15T06:42:09;7.43;;;2.53;;
12306;SDS011;6216;51.146;7.008;2024-02-15T06:44:38;10.37;;;2.30;;
12306;SDS011;6216;51.146;7.008;2024-02-15T06:47:07;4.53;;;2.40;;
12306;SDS011;6216;51.146;7.008;2024-02-15T06:49:37;9.63;;;2.10;;
12306;SDS011;6216;51.146;7.008;2024-02-15T06:52:07;3.93;;;2.10;;
12306;SDS011;6216;51.146;7.008;2024-02-15T06:54:36;9.47;;;2.93;;
12306;SDS011;6216;51.146;7.008;2024-02-15T06:57:05;5.67;;;2.13;;
12306;SDS011;6216;51.146;7.008;2024-02-15T06:59:34;6.23;;;2.20;;
12306;SDS011;6216;51.146;7.008;2024-02-15T07:02:03;8.27;;;2.33;;
12306;SDS011;6216;51.146;7.008;2024-02-15T07:04:32;7.43;;;1.90;;
12306;SDS011;6216;51.146;7.008;2024-02-15T07:07:00;5.83;;;2.47;;
12306;SDS011;6216;51.146;7.008;2024-02-15T07:09:29;5.50;;;2.20;;
12306;SDS011;6216;51.146;7.008;2024-02-15T07:12:00;5.00;;;2.10;;
12306;SDS011;6216;51.146;7.008;2024-02-15T07:14:28;8.93;;;2.07;;
12306;SDS011;6216;51.146;7.008;2024-02-15T07:16:57;7.90;;;2.07;;
12306;SDS011;6216;51.146;7.008;2024-02-15T07:19:25;9.70;;;2.50;;
12306;SDS011;6216;51.146;7.008;2024-02-15T07:21:54;4.97;;;2.23;;
12306;SDS011;6216;51.146;7.008;2024-02-15T07:24:23;4.53;;;2.10;;
12306;SDS011;6216;51.146;7.008;2024-02-15T07:26:53;7.27;;;2.10;;
12306;SDS011;6216;51.146;7.008;2024-02-15T07:29:24;5.87;;;2.17;;
12306;SDS011;6216;51.146;7.008;2024-02-15T07:31:54;4.03;;;1.80;;
12306;SDS011;6216;51.146;7.008;2024-02-15T07:34:22;3.80;;;2.20;;
12306;SDS011;6216;51.146;7.008;2024-02-15T07:36:52;6.20;;;2.17;;
12306;SDS011;6216;51.146;7.008;2024-02-15T07:39:20;5.70;;;2.10;;
12306;SDS011;6216;51.146;7.008;2024-02-15T07:41:51;3.53;;;2.10;;
12306;SDS011;6216;51.146;7.008;2024-02-15T07:44:19;4.47;;;1.67;;
12306;SDS011;6216;51.146;7.008;2024-02-15T07:46:49;3.97;;;1.77;;
12306;SDS011;6216;51.146;7.008;2024-02-15T07:49:18;5.70;;;1.97;;
12306;SDS011;6216;51.146;7.008;2024-02-15T07:51:46;5.17;;;2.10;;
12306;SDS011;6216;51.146;7.008;2024-02-15T07:54:19;7.87;;;2.33;;
12306;SDS011;6216;51.146;7.008;2024-02-15T07:56:48;10.20;;;2.30;;
12306;SDS011;6216;51.146;7.008;2024-02-15T07:59:17;6.50;;;1.77;;
12306;SDS011;6216;51.146;7.008;2024-02-15T08:01:46;4.70;;;1.97;;
12306;SDS011;6216;51.146;7.008;2024-02-15T08:04:17;5.13;;;1.73;;
12306;SDS011;6216;51.146;7.008;2024-02-15T08:06:46;4.80;;;1.70;;
12306;SDS011;6216;51.146;7.008;2024-02-15T08:09:15;5.90;;;2.03;;
12306;SDS011;6216;51.146;7.008;2024-02-15T08:11:44;3.87;;;1.77;;
12306;SDS011;6216;51.146;7.008;2024-02-15T08:14:12;5.30;;;2.40;;
12306;SDS011;6216;51.146;7.008;2024-02-15T08:16:41;6.33;;;2.10;;
12306;SDS011;6216;51.146;7.008;2024-02-15T08:19:09;4.00;;;1.93;;
12306;SDS011;6216;51.146;7.008;2024-02-15T08:21:39;5.87;;;2.23;;
12306;SDS011;6216;51.146;7.008;2024-02-15T08:24:08;8.70;;;2.30;;
12306;SDS011;6216;51.146;7.008;2024-02-15T08:26:37;5.03;;;2.10;;
12306;SDS011;6216;51.146;7.008;2024-02-15T08:29:05;5.40;;;2.17;;
12306;SDS011;6216;51.146;7.008;2024-02-15T08:31:33;6.67;;;2.13;;
12306;SDS011;6216;51.146;7.008;2024-02-15T08:34:02;7.67;;;2.50;;
12306;SDS011;6216;51.146;7.008;2024-02-15T08:36:32;8.63;;;2.00;;
12306;SDS011;6216;51.146;7.008;2024-02-15T08:39:02;4.93;;;2.23;;
12306;SDS011;6216;51.146;7.008;2024-02-15T08:41:31;8.33;;;2.30;;
12306;SDS011;6216;51.146;7.008;2024-02-15T08:44:03;5.53;;;2.30;;
12306;SDS011;6216;51.146;7.008;2024-02-15T08:46:35;4.90;;;1.90;;
12306;SDS011;6216;51.146;7.008;2024-02-15T08:49:03;6.67;;;2.00;;
12306;SDS011;6216;51.146;7.008;2024-02-15T08:51:32;4.83;;;1.77;;
12306;SDS011;6216;51.146;7.008;2024-02-15T08:54:01;3.20;;;1.83;;
12306;SDS011;6216;51.146;7.008;2024-02-15T08:56:30;7.67;;;1.93;;
12306;SDS011;6216;51.146;7.008;2024-02-15T08:59:00;5.90;;;1.47;;
12306;SDS011;6216;51.146;7.008;2024-02-15T09:01:30;4.97;;;1.80;;
12306;SDS011;6216;51.146;7.008;2024-02-15T09:04:00;5.47;;;2.07;;
12306;SDS011;6216;51.146;7.008;2024-02-15T09:06:28;7.20;;;2.00;;
12306;SDS011;6216;51.146;7.008;2024-02-15T09:08:57;3.93;;;1.80;;
12306;SDS011;6216;51.146;7.008;2024-02-15T09:11:29;4.90;;;1.90;;
12306;SDS011;6216;51.146;7.008;2024-02-15T09:13:57;7.43;;;2.10;;
12306;SDS011;6216;51.146;7.008;2024-02-15T09:16:25;7.83;;;2.50;;
12306;SDS011;6216;51.146;7.008;2024-02-15T09:18:54;4.20;;;1.77;;
12306;SDS011;6216;51.146;7.008;2024-02-15T09:21:22;7.53;;;2.10;;
12306;SDS011;6216;51.146;7.008;2024-02-15T09:23:52;3.60;;;1.67;;
12306;SDS011;6216;51.146;7.008;2024-02-15T09:26:20;5.10;;;2.20;;
12306;SDS011;6216;51.146;7.008;2024-02-15T09:28:50;4.73;;;1.67;;
12306;SDS011;6216;51.146;7.008;2024-02-15T09:31:19;4.40;;;1.90;;
12306;SDS011;6216;51.146;7.008;2024-02-15T09:33:48;4.43;;;1.67;;
12306;SDS011;6216;51.146;7.008;2024-02-15T09:36:16;4.10;;;1.70;;
12306;SDS011;6216;51.146;7.008;2024-02-15T09:38:45;5.50;;;1.80;;
12306;SDS011;6216;51.146;7.008;2024-02-15T09:41:14;5.50;;;2.23;;
12306;SDS011;6216;51.146;7.008;2024-02-15T09:43:42;4.30;;;1.90;;
12306;SDS011;6216;51.146;7.008;2024-02-15T09:46:13;7.10;;;2.10;;
12306;SDS011;6216;51.146;7.008;2024-02-15T09:48:43;5.83;;;2.00;;
12306;SDS011;6216;51.146;7.008;2024-02-15T09:51:16;4.47;;;1.73;;
12306;SDS011;6216;51.146;7.008;2024-02-15T09:53:46;6.27;;;1.80;;
12306;SDS011;6216;51.146;7.008;2024-02-15T09:56:15;3.17;;;1.70;;
12306;SDS011;6216;51.146;7.008;2024-02-15T09:58:44;5.33;;;1.50;;
12306;SDS011;6216;51.146;7.008;2024-02-15T10:01:14;5.60;;;1.60;;
12306;SDS011;6216;51.146;7.008;2024-02-15T10:03:43;7.17;;;1.90;;
12306;SDS011;6216;51.146;7.008;2024-02-15T10:06:11;5.07;;;1.80;;
12306;SDS011;6216;51.146;7.008;2024-02-15T10:08:40;4.93;;;1.63;;
12306;SDS011;6216;51.146;7.008;2024-02-15T10:11:10;3.63;;;1.93;;
12306;SDS011;6216;51.146;7.008;2024-02-15T10:13:38;5.60;;;1.80;;
12306;SDS011;6216;51.146;7.008;2024-02-15T10:16:15;3.90;;;1.60;;
12306;SDS011;6216;51.146;7.008;2024-02-15T10:18:47;9.60;;;1.60;;
12306;SDS011;6216;51.146;7.008;2024-02-15T10:21:25;4.73;;;1.40;;
12306;SDS011;6216;51.146;7.008;2024-02-15T10:24:05;3.67;;;1.50;;
12306;SDS011;6216;51.146;7.008;2024-02-15T10:26:34;7.53;;;2.00;;
12306;SDS011;6216;51.146;7.008;2024-02-15T10:29:06;5.60;;;1.53;;
12306;SDS011;6216;51.146;7.008;2024-02-15T10:31:38;5.13;;;2.00;;
12306;SDS011;6216;51.146;7.008;2024-02-15T10:34:07;1.97;;;1.30;;
12306;SDS011;6216;51.146;7.008;2024-02-15T10:36:37;5.87;;;1.47;;
12306;SDS011;6216;51.146;7.008;2024-02-15T10:39:12;2.63;;;1.60;;
12306;SDS011;6216;51.146;7.008;2024-02-15T10:41:50;7.93;;;1.80;;
12306;SDS011;6216;51.146;7.008;2024-02-15T10:44:20;4.53;;;1.30;;
12306;SDS011;6216;51.146;7.008;2024-02-15T10:46:50;7.27;;;1.90;;
12306;SDS011;6216;51.146;7.008;2024-02-15T10:49:19;5.07;;;1.23;;
12306;SDS011;6216;51.146;7.008;2024-02-15T10:51:50;5.40;;;1.73;;
12306;SDS011;6216;51.146;7.008;2024-02-15T10:54:29;5.00;;;1.70;;
12306;SDS011;6216;51.146;7.008;2024-02-15T10:57:03;3.33;;;1.37;;
12306;SDS011;6216;51.146;7.008;2024-02-15T10:59:33;5.40;;;1.67;;
12306;SDS011;6216;51.146;7.008;2024-02-15T11:02:09;3.83;;;1.20;;
12306;SDS011;6216;51.146;7.008;2024-02-15T11:04:41;2.67;;;1.27;;
12306;SDS011;6216;51.146;7.008;2024-02-15T11:07:10;3.47;;;1.57;;
12306;SDS011;6216;51.146;7.008;2024-02-15T11:09:40;4.80;;;1.23;;
12306;SDS011;6216;51.146;7.008;2024-02-15T11:12:09;2.80;;;1.20;;
12306;SDS011;6216;51.146;7.008;2024-02-15T11:14:38;5.63;;;1.63;;
12306;SDS011;6216;51.146;7.008;2024-02-15T11:17:07;5.23;;;1.50;;
12306;SDS011;6216;51.146;7.008;2024-02-15T11:19:40;5.57;;;1.37;;
12306;SDS011;6216;51.146;7.008;2024-02-15T11:22:08;4.40;;;1.33;;
12306;SDS011;6216;51.146;7.008;2024-02-15T11:24:45;4.63;;;1.23;;
12306;SDS011;6216;51.146;7.008;2024-02-15T11:27:23;2.47;;;1.60;;
12306;SDS011;6216;51.146;7.008;2024-02-15T11:29:53;2.37;;;1.07;;
12306;SDS011;6216;51.146;7.008;2024-02-15T11:32:37;5.20;;;1.50;;
12306;SDS011;6216;51.146;7.008;2024-02-15T11:35:07;3.63;;;1.70;;
12306;SDS011;6216;51.146;7.008;2024-02-15T11:37:50;4.77;;;1.43;;
12306;SDS011;6216;51.146;7.008;2024-02-15T11:40:22;4.80;;;1.27;;
12306;SDS011;6216;51.146;7.008;2024-02-15T11:42:52;4.70;;;1.27;;
12306;SDS011;6216;51.146;7.008;2024-02-15T11:45:20;4.03;;;1.40;;
12306;SDS011;6216;51.146;7.008;2024-02-15T11:47:52;3.40;;;1.10;;
12306;SDS011;6216;51.146;7.008;2024-02-15T11:50:22;5.20;;;1.60;;
12306;SDS011;6216;51.146;7.008;2024-02-15T11:52:51;3.63;;;1.20;;
12306;SDS011;6216;51.146;7.008;2024-02-15T11:55:20;2.63;;;1.00;;
12306;SDS011;6216;51.146;7.008;2024-02-15T11:57:55;4.97;;;1.60;;
12306;SDS011;6216;51.146;7.008;2024-02-15T12:00:29;4.17;;;1.40;;
12306;SDS011;6216;51.146;7.008;2024-02-15T12:03:16;1.47;;;1.10;;
12306;SDS011;6216;51.146;7.008;2024-02-15T12:06:03;6.33;;;1.60;;
12306;SDS011;6216;51.146;7.008;2024-02-15T12:08:50;3.83;;;1.53;;
12306;SDS011;6216;51.146;7.008;2024-02-15T12:11:36;3.30;;;1.50;;
12306;SDS011;6216;51.146;7.008;2024-02-15T12:14:25;5.17;;;1.57;;
12306;SDS011;6216;51.146;7.008;2024-02-15T12:17:11;5.07;;;1.60;;
12306;SDS011;6216;51.146;7.008;2024-02-15T12:20:00;3.57;;;1.57;;
12306;SDS011;6216;51.146;7.008;2024-02-15T12:22:34;4.37;;;1.60;;
12306;SDS011;6216;51.146;7.008;2024-02-15T12:25:04;2.83;;;1.70;;
12306;SDS011;6216;51.146;7.008;2024-02-15T12:27:38;4.10;;;1.50;;
12306;SDS011;6216;51.146;7.008;2024-02-15T12:30:06;3.33;;;1.47;;
12306;SDS011;6216;51.146;7.008;2024-02-15T12:32:37;3.90;;;1.73;;
12306;SDS011;6216;51.146;7.008;2024-02-15T12:35:13;5.00;;;1.57;;
12306;SDS011;6216;51.146;7.008;2024-02-15T12:37:43;5.07;;;1.63;;
12306;SDS011;6216;51.146;7.008;2024-02-15T12:40:12;2.40;;;1.13;;
12306;SDS011;6216;51.146;7.008;2024-02-15T12:42:42;4.23;;;1.40;;
12306;SDS011;6216;51.146;7.008;2024-02-15T12:45:17;3.90;;;1.83;;
12306;SDS011;6216;51.146;7.008;2024-02-15T12:47:47;4.33;;;1.50;;
12306;SDS011;6216;51.146;7.008;2024-02-15T12:50:19;3.57;;;1.77;;
12306;SDS011;6216;51.146;7.008;2024-02-15T12:52:48;3.67;;;1.40;;
12306;SDS011;6216;51.146;7.008;2024-02-15T12:55:16;2.57;;;1.30;;
12306;SDS011;6216;51.146;7.008;2024-02-15T12:57:47;3.60;;;1.30;;
12306;SDS011;6216;51.146;7.008;2024-02-15T13:00:17;1.87;;;1.10;;
12306;SDS011;6216;51.146;7.008;2024-02-15T13:02:48;3.80;;;1.60;;
12306;SDS011;6216;51.146;7.008;2024-02-15T13:05:16;2.47;;;0.90;;
12306;SDS011;6216;51.146;7.008;2024-02-15T13:07:47;4.53;;;1.50;;
12306;SDS011;6216;51.146;7.008;2024-02-15T13:10:16;3.73;;;1.67;;
12306;SDS011;6216;51.146;7.008;2024-02-15T13:12:47;3.43;;;1.40;;
12306;SDS011;6216;51.146;7.008;2024-02-15T13:15:16;1.93;;;1.20;;
12306;SDS011;6216;51.146;7.008;2024-02-15T13:17:47;4.07;;;0.90;;
12306;SDS011;6216;51.146;7.008;2024-02-15T13:20:18;2.83;;;1.10;;
12306;SDS011;6216;51.146;7.008;2024-02-15T13:22:57;2.53;;;1.37;;
12306;SDS011;6216;51.146;7.008;2024-02-15T13:25:28;3.77;;;1.20;;
12306;SDS011;6216;51.146;7.008;2024-02-15T13:27:56;4.63;;;1.13;;
12306;SDS011;6216;51.146;7.008;2024-02-15T13:30:25;3.90;;;1.60;;
12306;SDS011;6216;51.146;7.008;2024-02-15T13:32:54;3.63;;;1.10;;
12306;SDS011;6216;51.146;7.008;2024-02-15T13:35:22;4.10;;;1.73;;
12306;SDS011;6216;51.146;7.008;2024-02-15T13:37:52;3.80;;;1.20;;
12306;SDS011;6216;51.146;7.008;2024-02-15T13:40:22;2.70;;;1.30;;
12306;SDS011;6216;51.146;7.008;2024-02-15T13:42:51;3.67;;;1.37;;
12306;SDS011;6216;51.146;7.008;2024-02-15T13:45:20;5.13;;;1.30;;
12306;SDS011;6216;51.146;7.008;2024-02-15T13:47:50;4.63;;;1.57;;
12306;SDS011;6216;51.146;7.008;2024-02-15T13:50:22;2.37;;;1.27;;
12306;SDS011;6216;51.146;7.008;2024-02-15T13:52:51;2.77;;;1.50;;
12306;SDS011;6216;51.146;7.008;2024-02-15T13:55:19;5.00;;;1.50;;
12306;SDS011;6216;51.146;7.008;2024-02-15T13:57:49;5.60;;;1.47;;
12306;SDS011;6216;51.146;7.008;2024-02-15T14:00:18;4.87;;;1.50;;
12306;SDS011;6216;51.146;7.008;2024-02-15T14:02:56;5.20;;;1.60;;
12306;SDS011;6216;51.146;7.008;2024-02-15T14:05:27;1.67;;;1.10;;
12306;SDS011;6216;51.146;7.008;2024-02-15T14:07:56;3.53;;;1.07;;
12306;SDS011;6216;51.146;7.008;2024-02-15T14:10:25;2.90;;;1.10;;
12306;SDS011;6216;51.146;7.008;2024-02-15T14:12:55;1.47;;;0.93;;
12306;SDS011;6216;51.146;7.008;2024-02-15T14:15:24;3.73;;;1.20;;
12306;SDS011;6216;51.146;7.008;2024-02-15T14:17:53;5.57;;;1.10;;
12306;SDS011;6216;51.146;7.008;2024-02-15T14:20:22;4.63;;;1.63;;
12306;SDS011;6216;51.146;7.008;2024-02-15T14:22:51;7.30;;;1.07;;
12306;SDS011;6216;51.146;7.008;2024-02-15T14:25:22;4.43;;;1.20;;
12306;SDS011;6216;51.146;7.008;2024-02-15T14:27:53;3.57;;;1.13;;
12306;SDS011;6216;51.146;7.008;2024-02-15T14:30:24;5.03;;;1.20;;
12306;SDS011;6216;51.146;7.008;2024-02-15T14:33:10;2.33;;;1.00;;
12306;SDS011;6216;51.146;7.008;2024-02-15T14:35:48;2.53;;;1.20;;
12306;SDS011;6216;51.146;7.008;2024-02-15T14:38:16;3.37;;;1.60;;
12306;SDS011;6216;51.146;7.008;2024-02-15T14:40:48;3.83;;;1.20;;
12306;SDS011;6216;51.146;7.008;2024-02-15T14:43:20;1.73;;;1.20;;
12306;SDS011;6216;51.146;7.008;2024-02-15T14:45:50;4.20;;;1.23;;
12306;SDS011;6216;51.146;7.008;2024-02-15T14:48:19;5.83;;;1.13;;
12306;SDS011;6216;51.146;7.008;2024-02-15T14:50:48;3.43;;;0.90;;
12306;SDS011;6216;51.146;7.008;2024-02-15T14:53:18;3.27;;;1.03;;
12306;SDS011;6216;51.146;7.008;2024-02-15T14:55:47;3.97;;;0.97;;
12306;SDS011;6216;51.146;7.008;2024-02-15T14:58:16;3.47;;;1.13;;
12306;SDS011;6216;51.146;7.008;2024-02-15T15:00:44;3.07;;;1.30;;
12306;SDS011;6216;51.146;7.008;2024-02-15T15:03:15;3.80;;;1.40;;
12306;SDS011;6216;51.146;7.008;2024-02-15T15:05:44;3.73;;;1.10;;
12306;SDS011;6216;51.146;7.008;2024-02-15T15:08:35;4.13;;;1.20;;
12306;SDS011;6216;51.146;7.008;2024-02-15T15:11:21;2.57;;;1.13;;
12306;SDS011;6216;51.146;7.008;2024-02-15T15:14:08;3.80;;;1.37;;
12306;SDS011;6216;51.146;7.008;2024-02-15T15:16:36;3.30;;;1.20;;
12306;SDS011;6216;51.146;7.008;2024-02-15T15:19:06;6.77;;;1.40;;